Time;durP1;ratioP1;P1;durP2;ratioP2;P2;SDS_P1;SDS_P2;PMS_P1;PMS_P2;Temp;Humidity;BMP_temperature;BMP_pressure;BME280_temperature;BME280_humidity;BME280_pressure;Samples;Min_cycle;Max_cycle;Signal;HPM_P1;HPM_P2
2023/06/21 00:02:25;;;;;;;12.53;6.50;;;20.20;25.40;;;;;;5052898;28;20212;-70
2023/06/21 00:04:55;;;;;;;11.07;6.40;;;20.10;26.30;;;;;;5053350;28;20771;-70
2023/06/21 00:07:23;;;;;;;11.20;7.63;;;20.00;26.40;;;;;;5053455;28;20186;-70
2023/06/21 00:09:49;;;;;;;14.90;6.50;;;20.00;26.70;;;;;;5053292;28;20785;-70
2023/06/21 00:12:15;;;;;;;11.67;6.93;;;20.00;26.40;;;;;;5053070;28;20705;-70
2023/06/21 00:14:40;;;;;;;18.20;6.90;;;19.90;27.30;;;;;;5053091;28;20671;-69
2023/06/21 00:17:06;;;;;;;10.13;6.83;;;19.80;27.80;;;;;;5053022;28;20187;-70
2023/06/21 00:19:31;;;;;;;12.20;7.50;;;19.80;27.70;;;;;;5053344;28;20182;-69
2023/06/21 00:21:58;;;;;;;9.57;6.30;;;19.80;27.90;;;;;;5052512;28;20206;-69
2023/06/21 00:24:23;;;;;;;9.23;7.77;;;19.80;26.90;;;;;;5052871;28;20198;-69
2023/06/21 00:26:49;;;;;;;13.67;8.37;;;19.70;28.20;;;;;;5037067;28;20839;-70
2023/06/21 00:29:15;;;;;;;8.10;6.13;;;19.70;28.60;;;;;;5032918;28;20179;-70
2023/06/21 00:31:41;;;;;;;9.90;7.10;;;19.70;29.10;;;;;;5045205;28;20225;-70
2023/06/21 00:34:06;;;;;;;9.17;7.40;;;19.70;29.90;;;;;;5052522;28;20289;-69
2023/06/21 00:36:32;;;;;;;7.83;6.93;;;19.70;31.70;;;;;;5052733;28;20424;-70
2023/06/21 00:38:57;;;;;;;10.00;7.27;;;19.60;30.00;;;;;;5052793;28;20167;-70
2023/06/21 00:41:23;;;;;;;10.20;6.80;;;19.60;29.90;;;;;;5052179;28;20199;-71
2023/06/21 00:43:48;;;;;;;11.23;7.57;;;19.60;30.20;;;;;;5052195;28;20698;-70
2023/06/21 00:46:15;;;;;;;16.17;7.10;;;19.60;30.20;;;;;;5052530;28;20174;-70
2023/06/21 00:48:41;;;;;;;11.60;7.30;;;19.50;30.70;;;;;;5052270;28;20194;-70
2023/06/21 00:51:07;;;;;;;7.53;6.20;;;19.50;31.50;;;;;;5052528;28;20417;-70
2023/06/21 00:53:33;;;;;;;11.17;7.33;;;19.60;30.00;;;;;;5052069;28;20179;-70
2023/06/21 00:56:02;;;;;;;14.07;8.10;;;19.60;30.20;;;;;;5052316;28;20956;-70
2023/06/21 00:58:28;;;;;;;9.97;6.60;;;19.60;32.00;;;;;;5052291;28;20799;-70
2023/06/21 01:00:53;;;;;;;10.83;7.77;;;19.60;32.30;;;;;;5050955;28;20420;-71
2023/06/21 01:03:20;;;;;;;9.40;6.80;;;19.50;32.90;;;;;;5051705;28;20475;-70
2023/06/21 01:06:10;;;;;;;9.90;7.27;;;19.50;32.60;;;;;;5052258;28;20175;-70
2023/06/21 01:08:48;;;;;;;11.87;8.67;;;19.40;32.70;;;;;;5051669;28;20418;-70
2023/06/21 01:11:16;;;;;;;10.63;8.33;;;19.40;32.00;;;;;;5050636;28;20413;-70
2023/06/21 01:13:59;;;;;;;9.20;7.73;;;19.30;32.60;;;;;;5051726;28;20961;-71
2023/06/21 01:16:32;;;;;;;10.40;8.10;;;19.30;32.20;;;;;;5051986;28;20421;-70
2023/06/21 01:19:01;;;;;;;8.37;7.47;;;19.30;32.30;;;;;;5051908;28;20424;-70
2023/06/21 01:21:30;;;;;;;10.67;8.40;;;19.30;32.20;;;;;;5051780;28;20980;-70
2023/06/21 01:24:26;;;;;;;12.00;8.00;;;19.30;32.60;;;;;;5050454;28;20613;-71
2023/06/21 01:27:15;;;;;;;14.83;7.30;;;19.30;32.20;;;;;;5036555;28;20428;-71
2023/06/21 01:29:44;;;;;;;12.60;7.17;;;19.20;33.80;;;;;;5024358;28;20511;-70
2023/06/21 01:32:11;;;;;;;10.80;7.63;;;19.10;33.70;;;;;;5048416;28;20444;-70
2023/06/21 01:34:36;;;;;;;12.50;9.27;;;19.00;35.30;;;;;;5051511;28;20758;-71
2023/06/21 01:37:05;;;;;;;12.97;8.40;;;19.00;37.60;;;;;;5051621;28;20418;-71
2023/06/21 01:39:31;;;;;;;12.80;7.47;;;19.00;35.70;;;;;;5051479;28;20259;-71
2023/06/21 01:41:58;;;;;;;9.10;7.47;;;19.00;36.20;;;;;;5051255;28;20472;-71
2023/06/21 01:44:25;;;;;;;9.77;8.33;;;19.00;37.90;;;;;;5051593;28;20543;-70
2023/06/21 01:46:51;;;;;;;9.83;7.60;;;18.90;37.50;;;;;;5051625;28;20894;-70
2023/06/21 01:49:19;;;;;;;12.67;8.27;;;18.90;38.00;;;;;;5051403;28;20419;-70
2023/06/21 01:51:45;;;;;;;8.87;7.97;;;18.90;38.90;;;;;;5049796;28;20440;-70
2023/06/21 01:54:12;;;;;;;8.23;7.43;;;18.90;37.20;;;;;;5051478;28;20409;-70
2023/06/21 01:56:41;;;;;;;9.43;7.33;;;18.90;37.60;;;;;;5052110;28;20417;-71
2023/06/21 01:59:07;;;;;;;8.17;7.37;;;18.80;37.10;;;;;;5051614;28;20417;-70
2023/06/21 02:01:33;;;;;;;8.50;7.70;;;18.80;36.90;;;;;;5051242;28;20433;-70
2023/06/21 02:04:04;;;;;;;12.87;9.40;;;18.70;37.60;;;;;;5051552;28;20515;-68
2023/06/21 02:06:31;;;;;;;7.97;7.17;;;18.80;39.10;;;;;;5051353;28;20504;-68
2023/06/21 02:08:59;;;;;;;11.13;8.03;;;18.80;37.70;;;;;;5051458;28;20466;-68
2023/06/21 02:11:28;;;;;;;9.80;8.00;;;18.70;36.70;;;;;;5051390;28;20935;-70
2023/06/21 02:13:54;;;;;;;10.53;8.73;;;18.70;36.90;;;;;;5051662;28;20413;-71
2023/06/21 02:16:27;;;;;;;11.40;8.73;;;18.70;39.90;;;;;;5051360;28;20960;-69
2023/06/21 02:18:53;;;;;;;21.73;11.30;;;18.70;36.70;;;;;;5051404;28;20179;-69
2023/06/21 02:21:20;;;;;;;11.13;8.90;;;18.70;38.50;;;;;;5051195;28;20420;-70
2023/06/21 02:23:46;;;;;;;10.47;9.37;;;18.60;36.00;;;;;;5050974;28;20519;-70
2023/06/21 02:26:11;;;;;;;12.30;10.60;;;18.60;36.20;;;;;;5041223;28;20457;-70
2023/06/21 02:28:37;;;;;;;17.77;9.93;;;18.60;36.60;;;;;;5031348;28;20172;-70
2023/06/21 02:31:03;;;;;;;15.17;9.70;;;18.60;36.60;;;;;;5038849;28;20261;-70
2023/06/21 02:33:28;;;;;;;14.23;9.67;;;18.60;39.10;;;;;;5051012;28;20239;-70
2023/06/21 02:35:55;;;;;;;15.57;9.77;;;18.60;37.20;;;;;;5051080;28;20252;-69
2023/06/21 02:38:20;;;;;;;10.57;9.47;;;18.60;36.20;;;;;;5049726;28;20193;-70
2023/06/21 02:40:46;;;;;;;10.40;9.10;;;18.60;35.80;;;;;;5050943;28;20756;-70
2023/06/21 02:43:12;;;;;;;13.20;10.00;;;18.70;35.80;;;;;;5050539;28;20695;-70
2023/06/21 02:45:37;;;;;;;10.57;7.80;;;18.70;36.00;;;;;;5051007;28;20189;-70
2023/06/21 02:48:04;;;;;;;14.67;9.63;;;18.70;34.60;;;;;;5051187;28;20549;-70
2023/06/21 02:50:30;;;;;;;11.33;8.77;;;18.70;34.00;;;;;;5053109;28;20187;-70
2023/06/21 02:52:55;;;;;;;10.30;8.90;;;18.70;34.90;;;;;;5054228;28;20969;-70
2023/06/21 02:55:21;;;;;;;10.60;7.77;;;18.70;34.60;;;;;;5054400;28;20413;-70
2023/06/21 02:57:47;;;;;;;9.50;8.57;;;18.60;35.50;;;;;;5054405;28;20189;-70
2023/06/21 03:00:23;;;;;;;13.77;9.63;;;18.60;34.60;;;;;;5054287;28;20179;-70
2023/06/21 03:02:52;;;;;;;11.63;9.00;;;18.60;34.10;;;;;;5052653;28;20222;-70
2023/06/21 03:05:18;;;;;;;8.70;7.83;;;18.60;33.90;;;;;;5053838;28;20409;-70
2023/06/21 03:07:44;;;;;;;9.83;8.17;;;18.60;33.30;;;;;;5053989;28;20825;-70
2023/06/21 03:10:14;;;;;;;10.60;9.13;;;18.60;33.30;;;;;;5054280;28;20170;-70
2023/06/21 03:12:41;;;;;;;14.60;9.13;;;18.60;34.30;;;;;;5054267;28;20225;-70
2023/06/21 03:15:08;;;;;;;12.97;9.47;;;18.70;34.30;;;;;;5054186;28;20429;-70
2023/06/21 03:17:34;;;;;;;11.97;10.67;;;18.60;34.90;;;;;;5054100;28;20421;-70
2023/06/21 03:19:59;;;;;;;17.33;10.00;;;18.70;35.40;;;;;;5054112;28;20490;-70
2023/06/21 03:22:25;;;;;;;10.10;9.10;;;18.70;34.90;;;;;;5053540;28;20692;-70
2023/06/21 03:24:51;;;;;;;9.40;8.40;;;18.80;34.30;;;;;;5053929;28;20182;-70
2023/06/21 03:27:22;;;;;;;10.70;9.60;;;18.80;33.50;;;;;;5035087;28;20624;-70
2023/06/21 03:29:47;;;;;;;13.43;7.93;;;18.90;32.50;;;;;;5032746;28;20228;-70
2023/06/21 03:32:13;;;;;;;12.20;10.40;;;18.90;32.00;;;;;;5050849;28;20910;-70
2023/06/21 03:34:39;;;;;;;9.53;8.37;;;19.00;31.50;;;;;;5053727;28;20193;-70
2023/06/21 03:37:05;;;;;;;10.80;9.70;;;19.00;30.80;;;;;;5052433;28;20210;-69
2023/06/21 03:39:31;;;;;;;11.43;9.77;;;19.10;30.30;;;;;;5053683;28;20174;-70
2023/06/21 03:41:57;;;;;;;10.63;9.60;;;19.10;30.00;;;;;;5053101;28;20535;-70
2023/06/21 03:44:22;;;;;;;9.07;8.20;;;19.20;29.60;;;;;;5053689;28;20178;-70
2023/06/21 03:46:48;;;;;;;14.13;8.80;;;19.30;29.40;;;;;;5053601;28;20239;-70
2023/06/21 03:49:13;;;;;;;13.37;9.10;;;19.30;30.00;;;;;;5053585;28;20183;-70
2023/06/21 03:51:39;;;;;;;8.83;7.53;;;19.30;30.30;;;;;;5053070;28;20191;-69
2023/06/21 03:54:05;;;;;;;10.87;7.77;;;19.50;29.10;;;;;;5052139;28;20505;-70
2023/06/21 03:56:30;;;;;;;9.00;7.67;;;19.50;28.00;;;;;;5053465;28;20872;-70
2023/06/21 03:58:56;;;;;;;10.67;8.13;;;19.60;27.70;;;;;;5052283;28;20543;-69
2023/06/21 04:01:22;;;;;;;13.77;8.20;;;19.70;26.70;;;;;;5053227;28;20198;-70
2023/06/21 04:03:48;;;;;;;10.30;7.43;;;19.80;26.70;;;;;;5051706;28;20309;-70
2023/06/21 04:06:13;;;;;;;9.33;7.00;;;19.80;26.60;;;;;;5051889;28;20837;-70
2023/06/21 04:08:39;;;;;;;9.47;7.77;;;19.80;26.00;;;;;;5053149;28;20179;-70
2023/06/21 04:11:05;;;;;;;12.13;6.63;;;19.90;25.10;;;;;;5053210;28;20255;-70
2023/06/21 04:13:30;;;;;;;7.97;7.07;;;19.90;25.70;;;;;;5052891;28;20628;-69
2023/06/21 04:15:56;;;;;;;11.80;7.40;;;19.90;25.10;;;;;;5053167;28;20189;-70
2023/06/21 04:18:21;;;;;;;11.17;10.07;;;20.00;25.20;;;;;;5053127;28;20178;-70
2023/06/21 04:20:49;;;;;;;12.27;8.13;;;20.10;26.30;;;;;;5053280;28;20178;-70
2023/06/21 04:23:15;;;;;;;14.60;9.13;;;20.00;26.70;;;;;;5052882;28;20205;-70
2023/06/21 04:25:40;;;;;;;11.17;8.80;;;20.00;27.60;;;;;;5047613;28;20912;-70
2023/06/21 04:28:06;;;;;;;10.53;9.00;;;19.90;27.90;;;;;;5033173;28;20171;-71
2023/06/21 04:30:34;;;;;;;12.00;7.80;;;19.80;28.60;;;;;;5035350;28;20664;-71
2023/06/21 04:33:00;;;;;;;8.67;7.77;;;19.70;29.30;;;;;;5053882;28;20202;-72
2023/06/21 04:35:25;;;;;;;11.27;9.37;;;19.70;29.30;;;;;;5054758;28;20516;-72
2023/06/21 04:37:51;;;;;;;10.83;9.07;;;19.80;29.30;;;;;;5053448;28;20186;-71
2023/06/21 04:40:21;;;;;;;10.53;9.30;;;19.90;28.90;;;;;;5051957;28;20273;-72
2023/06/21 04:42:54;;;;;;;11.83;10.03;;;20.00;27.90;;;;;;5052370;28;20267;-72
2023/06/21 04:45:20;;;;;;;11.43;9.60;;;20.10;27.00;;;;;;5052752;28;20426;-71
2023/06/21 04:47:49;;;;;;;16.70;8.53;;;20.20;26.60;;;;;;5052506;28;20413;-71
2023/06/21 04:50:16;;;;;;;12.40;9.47;;;20.20;26.80;;;;;;5052377;28;20467;-72
2023/06/21 04:52:41;;;;;;;14.40;9.93;;;20.10;27.20;;;;;;5052014;28;20449;-72
2023/06/21 04:55:08;;;;;;;10.13;9.13;;;20.10;27.60;;;;;;5052461;28;20475;-71
2023/06/21 04:57:34;;;;;;;12.60;10.60;;;20.10;27.90;;;;;;5052527;28;20186;-71
2023/06/21 05:00:07;;;;;;;12.43;10.63;;;20.10;28.00;;;;;;5052259;28;20413;-71
2023/06/21 05:02:32;;;;;;;12.30;11.00;;;20.20;28.10;;;;;;5050588;28;20469;-71
2023/06/21 05:04:58;;;;;;;13.83;10.63;;;20.20;28.10;;;;;;5051888;28;20413;-72
2023/06/21 05:07:24;;;;;;;10.93;8.97;;;20.30;27.90;;;;;;5052061;28;20204;-72
2023/06/21 05:09:49;;;;;;;21.87;11.00;;;20.50;26.70;;;;;;5051987;28;20210;-71
2023/06/21 05:12:15;;;;;;;15.53;11.53;;;20.70;25.90;;;;;;5051264;28;20319;-71
2023/06/21 05:14:40;;;;;;;12.40;10.50;;;20.90;25.20;;;;;;5052005;28;20712;-70
2023/06/21 05:17:06;;;;;;;10.63;9.53;;;21.00;24.30;;;;;;5052082;28;20182;-70
2023/06/21 05:19:32;;;;;;;16.80;10.30;;;21.10;23.60;;;;;;5051834;28;20210;-70
2023/06/21 05:21:57;;;;;;;9.83;8.83;;;21.30;22.40;;;;;;5051486;28;20205;-71
2023/06/21 05:24:23;;;;;;;14.30;10.13;;;21.40;21.90;;;;;;5051641;28;20632;-71
2023/06/21 05:26:48;;;;;;;12.53;9.73;;;21.60;21.20;;;;;;5036636;28;20325;-71
2023/06/21 05:29:14;;;;;;;11.50;9.90;;;21.70;20.80;;;;;;5033022;28;20171;-73
2023/06/21 05:31:43;;;;;;;9.87;8.97;;;21.90;19.10;;;;;;5047910;28;20270;-74
2023/06/21 05:34:09;;;;;;;10.40;9.40;;;22.00;18.70;;;;;;5052281;28;20265;-76
2023/06/21 05:36:35;;;;;;;10.33;9.10;;;22.20;18.10;;;;;;5051952;28;20427;-72
2023/06/21 05:39:01;;;;;;;9.97;8.83;;;22.40;17.90;;;;;;5051616;28;20504;-71
2023/06/21 05:41:26;;;;;;;10.77;7.13;;;22.70;17.00;;;;;;5051446;28;20214;-71
2023/06/21 05:43:52;;;;;;;9.80;8.77;;;23.10;16.60;;;;;;5050132;28;20212;-71
2023/06/21 05:46:18;;;;;;;16.33;10.37;;;23.30;14.90;;;;;;5051667;28;20166;-71
2023/06/21 05:48:44;;;;;;;14.27;8.63;;;23.60;14.30;;;;;;5051653;28;20180;-72
2023/06/21 05:51:09;;;;;;;10.63;7.80;;;24.30;12.30;;;;;;5051453;28;20499;-72
2023/06/21 05:53:35;;;;;;;12.60;7.43;;;24.90;10.10;;;;;;5051094;28;20262;-71
2023/06/21 05:56:01;;;;;;;9.77;7.17;;;25.50;8.90;;;;;;5051449;28;20175;-72
2023/06/21 05:58:30;;;;;;;11.47;8.30;;;25.60;7.50;;;;;;5050414;28;20184;-71
2023/06/21 06:00:56;;;;;;;9.67;7.90;;;25.60;7.40;;;;;;5051382;28;20687;-72
2023/06/21 06:03:22;;;;;;;11.40;7.73;;;25.70;6.70;;;;;;5049615;28;20465;-71
2023/06/21 06:05:49;;;;;;;10.50;7.80;;;25.70;6.60;;;;;;5051409;28;20406;-71
2023/06/21 06:08:15;;;;;;;8.70;7.90;;;25.60;6.70;;;;;;5051704;28;20185;-71
2023/06/21 06:10:41;;;;;;;11.33;8.57;;;25.80;6.80;;;;;;5051435;28;20409;-72
2023/06/21 06:13:06;;;;;;;10.83;9.73;;;25.90;6.40;;;;;;5050964;28;20460;-71
2023/06/21 06:15:32;;;;;;;12.10;9.63;;;25.80;6.40;;;;;;5051499;28;20413;-72
2023/06/21 06:17:58;;;;;;;8.47;7.60;;;26.70;5.30;;;;;;5049781;28;20784;-72
2023/06/21 06:20:27;;;;;;;8.90;7.97;;;27.60;2.90;;;;;;5051393;28;20175;-73
2023/06/21 06:22:53;;;;;;;10.07;8.37;;;28.60;1.00;;;;;;5051059;28;20210;-72
2023/06/21 06:25:18;;;;;;;9.53;8.63;;;30.50;1.00;;;;;;5050740;28;20775;-70
2023/06/21 06:27:44;;;;;;;9.50;8.27;;;32.40;1.00;;;;;;5035317;28;20177;-73
2023/06/21 06:30:11;;;;;;;9.60;8.70;;;33.90;1.00;;;;;;5036376;28;20625;-68
2023/06/21 06:32:37;;;;;;;10.80;8.83;;;35.60;1.00;;;;;;5054690;28;20198;-69
2023/06/21 06:35:03;;;;;;;11.10;10.27;;;36.40;1.00;;;;;;5053786;28;20420;-70
2023/06/21 06:37:29;;;;;;;9.37;8.57;;;36.70;1.00;;;;;;5054864;28;20520;-70
2023/06/21 06:39:55;;;;;;;10.43;9.43;;;37.30;1.00;;;;;;5055019;28;20578;-70
2023/06/21 06:42:21;;;;;;;10.17;9.37;;;37.20;1.00;;;;;;5054275;28;20207;-71
2023/06/21 06:44:50;;;;;;;10.93;10.03;;;36.60;1.00;;;;;;5054698;28;20197;-70
2023/06/21 06:47:16;;;;;;;9.93;8.53;;;36.70;1.00;;;;;;5054445;28;20412;-70
2023/06/21 06:49:42;;;;;;;10.87;9.63;;;36.90;1.00;;;;;;5054806;28;20874;-71
2023/06/21 06:52:10;;;;;;;9.47;8.70;;;37.10;1.00;;;;;;5054151;28;20433;-70
2023/06/21 06:54:35;;;;;;;10.83;9.70;;;37.90;1.00;;;;;;5054950;28;20167;-71
2023/06/21 06:57:01;;;;;;;10.03;9.07;;;38.80;1.00;;;;;;5054642;28;20428;-70
2023/06/21 06:59:26;;;;;;;9.17;8.37;;;39.10;1.00;;;;;;5054547;28;20185;-70
2023/06/21 07:01:52;;;;;;;9.47;8.60;;;38.20;1.00;;;;;;5054214;28;20523;-71
2023/06/21 07:04:17;;;;;;;13.03;10.03;;;36.50;1.00;;;;;;5054740;28;20185;-70
2023/06/21 07:06:43;;;;;;;9.97;9.00;;;36.70;1.00;;;;;;5053359;28;20175;-70
2023/06/21 07:09:09;;;;;;;10.63;9.00;;;36.80;1.00;;;;;;5054114;28;20324;-70
2023/06/21 07:11:35;;;;;;;16.70;8.30;;;36.90;1.00;;;;;;5054044;28;20190;-71
2023/06/21 07:14:01;;;;;;;12.63;8.80;;;36.40;1.00;;;;;;5054337;28;20651;-72
2023/06/21 07:16:33;;;;;;;8.67;7.97;;;36.60;1.00;;;;;;5054203;28;20503;-73
2023/06/21 07:18:58;;;;;;;14.77;9.10;;;36.80;1.00;;;;;;5054139;28;20181;-71
2023/06/21 07:21:27;;;;;;;10.50;8.80;;;37.00;1.00;;;;;;5054003;28;20432;-72
2023/06/21 07:23:52;;;;;;;8.40;7.43;;;36.90;1.00;;;;;;5053902;28;20210;-72
2023/06/21 07:26:18;;;;;;;10.20;8.67;;;37.40;1.00;;;;;;5043362;28;20783;-71
2023/06/21 07:28:44;;;;;;;8.33;7.53;;;36.90;1.00;;;;;;5039248;28;20179;-71
2023/06/21 07:31:10;;;;;;;8.83;8.13;;;37.30;1.00;;;;;;5045081;28;20194;-71
2023/06/21 07:33:36;;;;;;;8.40;7.70;;;37.40;1.00;;;;;;5053363;28;20181;-72
2023/06/21 07:36:01;;;;;;;9.73;8.47;;;38.20;1.00;;;;;;5062921;28;20647;-73
2023/06/21 07:38:27;;;;;;;10.00;9.00;;;38.70;1.00;;;;;;5073438;28;20527;-72
2023/06/21 07:40:52;;;;;;;8.67;7.87;;;38.80;1.00;;;;;;5073427;28;20190;-72
2023/06/21 07:43:19;;;;;;;10.27;9.47;;;37.70;1.00;;;;;;5063492;28;20290;-71
2023/06/21 07:45:44;;;;;;;9.97;9.17;;;35.90;1.00;;;;;;5058685;28;20181;-72
2023/06/21 07:48:10;;;;;;;10.67;9.57;;;34.70;1.00;;;;;;5073751;28;20408;-71
2023/06/21 07:50:36;;;;;;;9.93;9.07;;;34.10;1.00;;;;;;5055521;28;20198;-72
2023/06/21 07:53:03;;;;;;;10.30;9.33;;;33.80;1.00;;;;;;5051382;28;20643;-72
2023/06/21 07:55:32;;;;;;;10.53;9.63;;;34.10;1.00;;;;;;5051983;28;20198;-72
2023/06/21 07:58:01;;;;;;;11.73;9.73;;;34.70;1.00;;;;;;5050743;28;20480;-71
2023/06/21 08:00:27;;;;;;;10.17;9.17;;;35.10;1.00;;;;;;5053278;28;20510;-71
2023/06/21 08:02:53;;;;;;;14.77;10.13;;;35.60;1.00;;;;;;5052894;28;20218;-71
2023/06/21 08:05:19;;;;;;;10.47;9.57;;;36.60;1.00;;;;;;5050971;28;20697;-71
2023/06/21 08:07:45;;;;;;;9.87;8.97;;;35.20;1.00;;;;;;5051232;28;20448;-71
2023/06/21 08:10:12;;;;;;;13.93;9.00;;;33.20;1.00;;;;;;5052950;28;20498;-71
2023/06/21 08:12:37;;;;;;;10.17;9.27;;;32.30;1.00;;;;;;5053014;28;20194;-71
2023/06/21 08:15:03;;;;;;;11.63;10.70;;;31.10;1.00;;;;;;5053027;28;20766;-71
2023/06/21 08:17:29;;;;;;;10.60;9.13;;;30.00;1.00;;;;;;5053333;28;20172;-71
2023/06/21 08:19:55;;;;;;;11.20;9.90;;;29.00;1.00;;;;;;5048431;28;20998;-71
2023/06/21 08:22:21;;;;;;;10.50;9.50;;;28.30;1.00;;;;;;5049802;28;20568;-70
2023/06/21 08:24:47;;;;;;;13.10;11.03;;;27.70;1.00;;;;;;5052951;28;20519;-71
2023/06/21 08:27:14;;;;;;;13.00;8.70;;;27.10;1.00;;;;;;5033173;28;20245;-70
2023/06/21 08:29:39;;;;;;;11.07;9.90;;;26.60;1.00;;;;;;5032878;28;20425;-70
2023/06/21 08:32:06;;;;;;;10.03;9.10;;;26.00;1.00;;;;;;5049625;28;20527;-70
2023/06/21 08:34:32;;;;;;;14.03;10.70;;;25.50;1.90;;;;;;5052748;28;20175;-70
2023/06/21 08:36:58;;;;;;;11.33;10.33;;;25.20;3.90;;;;;;5068179;28;20511;-70
2023/06/21 08:39:23;;;;;;;8.27;7.43;;;25.00;6.30;;;;;;5058161;28;20191;-71
2023/06/21 08:41:49;;;;;;;14.13;8.80;;;24.80;7.60;;;;;;5052177;28;20214;-70
2023/06/21 08:44:15;;;;;;;11.83;8.27;;;24.40;10.60;;;;;;5052306;28;20249;-70
2023/06/21 08:46:42;;;;;;;14.43;10.70;;;23.70;9.20;;;;;;5052105;28;20190;-71
2023/06/21 08:49:13;;;;;;;21.90;12.07;;;22.70;20.10;;;;;;5051951;28;20640;-71
2023/06/21 08:51:40;;;;;;;13.40;9.83;;;21.90;26.50;;;;;;5063103;28;20585;-71
2023/06/21 08:54:09;;;;;;;10.03;7.10;;;21.40;30.30;;;;;;5065714;28;20609;-71
2023/06/21 08:57:04;;;;;;;10.93;7.63;;;20.80;28.60;;;;;;5063630;28;20439;-70
2023/06/21 08:59:54;;;;;;;14.90;7.97;;;20.50;33.00;;;;;;5031022;28;20775;-71
2023/06/21 09:02:38;;;;;;;10.17;6.80;;;20.20;36.00;;;;;;5048165;28;20468;-70
2023/06/21 09:05:08;;;;;;;9.47;6.07;;;19.80;38.30;;;;;;5051977;28;20822;-71
2023/06/21 09:07:36;;;;;;;9.40;5.47;;;19.60;39.10;;;;;;5069673;28;20913;-70
2023/06/21 09:10:06;;;;;;;8.93;5.13;;;19.40;39.70;;;;;;5051153;28;20410;-70
2023/06/21 09:12:34;;;;;;;6.83;4.23;;;19.30;40.40;;;;;;5051824;28;20862;-71
2023/06/21 09:15:01;;;;;;;11.90;6.07;;;19.10;39.00;;;;;;5052333;28;20421;-71
2023/06/21 09:17:27;;;;;;;9.17;5.70;;;19.00;40.60;;;;;;5070221;28;20424;-71
2023/06/21 09:19:53;;;;;;;8.83;5.13;;;18.90;43.30;;;;;;5074583;28;20940;-70
2023/06/21 09:22:24;;;;;;;11.10;5.63;;;18.90;44.70;;;;;;5072541;28;20625;-71
2023/06/21 09:24:50;;;;;;;11.20;4.97;;;18.90;45.00;;;;;;5072333;28;20772;-71
2023/06/21 09:27:16;;;;;;;6.60;5.17;;;18.70;43.10;;;;;;5034916;28;20505;-71
2023/06/21 09:29:41;;;;;;;14.60;3.60;;;18.50;41.80;;;;;;5032225;28;20418;-71
2023/06/21 09:32:07;;;;;;;6.50;4.10;;;18.50;43.60;;;;;;5048466;28;20343;-71
2023/06/21 09:34:36;;;;;;;10.43;4.17;;;18.40;45.00;;;;;;5043143;28;20644;-72
2023/06/21 09:37:01;;;;;;;10.40;4.70;;;18.40;43.70;;;;;;5051683;28;20540;-72
2023/06/21 09:39:28;;;;;;;10.70;3.87;;;18.30;43.30;;;;;;5050921;28;20413;-71
2023/06/21 09:41:54;;;;;;;8.30;4.40;;;18.20;44.60;;;;;;5049970;28;20218;-71
2023/06/21 09:44:20;;;;;;;11.23;4.47;;;18.20;46.20;;;;;;5051782;28;20413;-71
2023/06/21 09:46:57;;;;;;;10.20;4.73;;;18.20;46.50;;;;;;5052103;28;20635;-70
2023/06/21 09:49:27;;;;;;;7.30;4.03;;;18.20;45.70;;;;;;5052189;28;20499;-72
2023/06/21 09:51:52;;;;;;;9.27;4.70;;;18.10;46.30;;;;;;5051459;28;20486;-70
2023/06/21 09:54:18;;;;;;;9.07;4.90;;;18.10;47.70;;;;;;5050428;28;20820;-71
2023/06/21 09:56:44;;;;;;;6.60;3.80;;;18.20;48.60;;;;;;5052093;28;20206;-71
2023/06/21 09:59:20;;;;;;;6.47;4.43;;;18.20;48.80;;;;;;5053723;28;20181;-71
2023/06/21 10:01:48;;;;;;;8.63;4.60;;;18.20;46.90;;;;;;5055712;28;20451;-71
2023/06/21 10:04:15;;;;;;;6.53;4.10;;;18.20;47.80;;;;;;5056109;28;20460;-71
2023/06/21 10:06:51;;;;;;;7.17;4.30;;;18.20;47.80;;;;;;5055823;28;20416;-70
2023/06/21 10:09:18;;;;;;;10.07;3.93;;;18.30;47.00;;;;;;5054439;28;20760;-70
2023/06/21 10:11:44;;;;;;;11.17;5.40;;;18.30;47.30;;;;;;5055563;28;20840;-70
2023/06/21 10:14:19;;;;;;;7.57;4.80;;;18.40;47.60;;;;;;5055710;28;20444;-70
2023/06/21 10:16:50;;;;;;;12.20;5.20;;;18.50;46.80;;;;;;5055920;28;20499;-70
2023/06/21 10:19:22;;;;;;;9.47;4.97;;;18.60;45.50;;;;;;5055998;28;20405;-71
2023/06/21 10:22:05;;;;;;;11.83;5.20;;;18.80;44.60;;;;;;5055759;28;20437;-71
2023/06/21 10:24:46;;;;;;;7.97;5.00;;;19.00;41.30;;;;;;5054527;28;20427;-71
2023/06/21 10:27:12;;;;;;;11.73;6.30;;;19.20;42.80;;;;;;5037523;28;20410;-71
2023/06/21 10:29:39;;;;;;;7.53;5.40;;;19.50;39.40;;;;;;5035567;28;20475;-71
2023/06/21 10:32:06;;;;;;;7.20;4.73;;;19.70;37.80;;;;;;5051634;28;20433;-71
2023/06/21 10:34:40;;;;;;;9.20;4.97;;;20.00;33.70;;;;;;5055115;28;20498;-71
2023/06/21 10:37:18;;;;;;;6.40;4.13;;;20.20;29.60;;;;;;5055199;28;20440;-72
2023/06/21 10:39:49;;;;;;;9.97;4.00;;;20.50;28.20;;;;;;5055320;28;20441;-71
2023/06/21 10:42:14;;;;;;;6.53;2.90;;;20.70;25.20;;;;;;5054724;28;20444;-71
2023/06/21 10:44:40;;;;;;;7.70;3.43;;;21.10;22.90;;;;;;5055032;28;20781;-71
2023/06/21 10:47:07;;;;;;;10.30;4.67;;;21.50;21.20;;;;;;5055064;28;20171;-71
2023/06/21 10:49:33;;;;;;;6.17;3.30;;;22.00;20.80;;;;;;5054911;28;20766;-70
2023/06/21 10:51:59;;;;;;;9.80;3.23;;;22.50;18.90;;;;;;5054870;28;20429;-71
2023/06/21 10:54:26;;;;;;;9.40;4.63;;;22.80;17.70;;;;;;5054995;28;20417;-71
2023/06/21 10:56:53;;;;;;;12.73;4.67;;;23.30;15.30;;;;;;5055012;28;20413;-71
2023/06/21 10:59:23;;;;;;;8.47;4.50;;;23.60;13.10;;;;;;5055102;28;20417;-72
2023/06/21 11:01:49;;;;;;;7.93;4.10;;;24.00;12.10;;;;;;5053307;28;20445;-72
2023/06/21 11:04:15;;;;;;;9.70;5.10;;;24.60;10.60;;;;;;5054452;28;20460;-68
2023/06/21 11:06:42;;;;;;;6.50;4.20;;;25.20;8.50;;;;;;5054571;28;20175;-70
2023/06/21 11:09:11;;;;;;;11.00;3.97;;;25.10;8.70;;;;;;5054648;28;20181;-70
2023/06/21 11:11:40;;;;;;;9.07;4.60;;;25.60;8.70;;;;;;5053479;28;20436;-69
2023/06/21 11:14:06;;;;;;;9.83;4.60;;;25.90;5.90;;;;;;5054690;28;20416;-68
2023/06/21 11:16:35;;;;;;;5.40;3.70;;;25.80;6.20;;;;;;5054662;28;20413;-69
2023/06/21 11:19:06;;;;;;;4.73;3.37;;;25.70;3.60;;;;;;5054352;28;20828;-69
2023/06/21 11:21:41;;;;;;;8.80;4.47;;;25.60;3.90;;;;;;5052973;28;20853;-71
2023/06/21 11:24:11;;;;;;;9.30;4.70;;;25.80;4.70;;;;;;5053041;28;20447;-70
2023/06/21 11:27:02;;;;;;;6.87;4.37;;;26.10;4.20;;;;;;5041162;28;20410;-69
2023/06/21 11:29:34;;;;;;;6.80;3.33;;;26.30;2.30;;;;;;5033396;28;20776;-68
2023/06/21 11:32:10;;;;;;;5.30;3.83;;;26.50;4.60;;;;;;5049927;28;20437;-69
2023/06/21 11:34:53;;;;;;;11.80;4.20;;;26.70;2.60;;;;;;5054195;28;20440;-69
2023/06/21 11:37:36;;;;;;;5.33;3.97;;;26.40;2.40;;;;;;5054638;28;20455;-69
2023/06/21 11:40:06;;;;;;;5.90;3.70;;;26.30;2.30;;;;;;5054388;28;20416;-69
2023/06/21 11:42:46;;;;;;;5.77;3.70;;;26.20;3.00;;;;;;5053753;28;20815;-69
2023/06/21 11:45:35;;;;;;;9.50;4.10;;;26.20;1.60;;;;;;5052796;28;20421;-69
2023/06/21 11:48:03;;;;;;;6.00;4.20;;;26.20;2.30;;;;;;5054194;28;20463;-69
2023/06/21 11:50:48;;;;;;;6.10;3.87;;;26.20;1.00;;;;;;5054062;28;21111;-69
2023/06/21 11:53:29;;;;;;;6.10;3.60;;;26.20;1.20;;;;;;5053595;28;20431;-68
2023/06/21 11:55:57;;;;;;;6.10;3.90;;;26.30;2.90;;;;;;5053969;28;20432;-69
2023/06/21 11:58:24;;;;;;;4.27;3.37;;;26.40;1.00;;;;;;5052635;28;20952;-69
2023/06/21 12:00:50;;;;;;;4.40;3.47;;;26.10;1.00;;;;;;5053679;28;20829;-69
2023/06/21 12:03:16;;;;;;;9.63;4.60;;;26.40;1.00;;;;;;5053253;28;20482;-70
2023/06/21 12:05:43;;;;;;;5.17;4.30;;;26.40;1.00;;;;;;5053815;28;20409;-69
2023/06/21 12:08:10;;;;;;;5.40;4.30;;;26.60;1.00;;;;;;5053739;28;20163;-73
2023/06/21 12:10:36;;;;;;;7.43;4.43;;;26.60;1.00;;;;;;5053828;28;20946;-67
2023/06/21 12:13:05;;;;;;;14.67;4.50;;;26.70;1.00;;;;;;5052115;28;20484;-72
2023/06/21 12:15:31;;;;;;;5.73;5.13;;;26.90;1.00;;;;;;5053735;28;20179;-72
2023/06/21 12:17:56;;;;;;;9.80;4.13;;;26.90;1.00;;;;;;5053919;28;20418;-72
2023/06/21 12:20:22;;;;;;;5.57;4.30;;;26.60;1.00;;;;;;5053663;28;20181;-72
2023/06/21 12:22:48;;;;;;;5.00;4.33;;;26.80;1.00;;;;;;5052276;28;20202;-72
2023/06/21 12:25:14;;;;;;;4.40;4.00;;;26.80;1.00;;;;;;5051608;28;20444;-72
2023/06/21 12:27:56;;;;;;;4.67;4.27;;;26.90;1.00;;;;;;5032566;28;20885;-73
2023/06/21 12:30:25;;;;;;;10.40;4.37;;;26.70;1.00;;;;;;5036073;28;20177;-72
2023/06/21 12:32:51;;;;;;;7.20;4.60;;;26.70;1.00;;;;;;5053020;28;20432;-73
2023/06/21 12:35:18;;;;;;;5.93;4.13;;;26.70;1.00;;;;;;5052062;28;20793;-73
2023/06/21 12:37:46;;;;;;;6.20;4.50;;;26.70;1.00;;;;;;5053181;28;20840;-72
2023/06/21 12:40:16;;;;;;;6.63;5.20;;;27.00;1.00;;;;;;5053009;28;20555;-75
2023/06/21 12:42:44;;;;;;;4.47;4.07;;;27.30;1.00;;;;;;5052534;28;20472;-72
2023/06/21 12:45:19;;;;;;;5.33;4.27;;;27.20;1.00;;;;;;5053158;28;20488;-73
2023/06/21 12:47:48;;;;;;;5.10;4.70;;;27.70;1.00;;;;;;5053522;28;20412;-73